sensor_id;sensor_type;location;lat;lon;timestamp;P1;durP1;ratioP1;P2;durP2;ratioP2
8881;SDS011;4477;48.736;9.176;2022-11-27T00:02:21;64.73;;;49.60;;
8881;SDS011;4477;48.736;9.176;2022-11-27T00:04:48;60.00;;;48.57;;
8881;SDS011;4477;48.736;9.176;2022-11-27T00:07:15;59.17;;;47.50;;
8881;SDS011;4477;48.736;9.176;2022-11-27T00:09:42;46.10;;;39.83;;
8881;SDS011;4477;48.736;9.176;2022-11-27T00:12:09;54.87;;;45.77;;
8881;SDS011;4477;48.736;9.176;2022-11-27T00:14:38;61.90;;;51.77;;
8881;SDS011;4477;48.736;9.176;2022-11-27T00:17:05;67.97;;;54.43;;
8881;SDS011;4477;48.736;9.176;2022-11-27T00:19:32;61.23;;;53.17;;
8881;SDS011;4477;48.736;9.176;2022-11-27T00:21:59;61.30;;;51.77;;
8881;SDS011;4477;48.736;9.176;2022-11-27T00:24:26;68.70;;;55.87;;
8881;SDS011;4477;48.736;9.176;2022-11-27T00:26:53;76.17;;;59.30;;
8881;SDS011;4477;48.736;9.176;2022-11-27T00:29:21;75.03;;;62.60;;
8881;SDS011;4477;48.736;9.176;2022-11-27T00:31:49;80.27;;;62.37;;
8881;SDS011;4477;48.736;9.176;2022-11-27T00:34:16;86.33;;;65.00;;
8881;SDS011;4477;48.736;9.176;2022-11-27T00:36:43;71.77;;;53.70;;
8881;SDS011;4477;48.736;9.176;2022-11-27T00:39:10;85.60;;;63.63;;
8881;SDS011;4477;48.736;9.176;2022-11-27T00:41:37;70.80;;;55.37;;
8881;SDS011;4477;48.736;9.176;2022-11-27T00:44:05;74.63;;;56.77;;
8881;SDS011;4477;48.736;9.176;2022-11-27T00:46:32;71.27;;;52.97;;
8881;SDS011;4477;48.736;9.176;2022-11-27T00:49:02;71.10;;;54.50;;
8881;SDS011;4477;48.736;9.176;2022-11-27T00:51:30;66.53;;;51.50;;
8881;SDS011;4477;48.736;9.176;2022-11-27T00:53:57;69.03;;;51.47;;
8881;SDS011;4477;48.736;9.176;2022-11-27T00:56:25;65.90;;;50.80;;
8881;SDS011;4477;48.736;9.176;2022-11-27T00:58:52;82.20;;;58.90;;
8881;SDS011;4477;48.736;9.176;2022-11-27T01:01:20;114.30;;;77.10;;
8881;SDS011;4477;48.736;9.176;2022-11-27T01:03:48;90.80;;;65.00;;
8881;SDS011;4477;48.736;9.176;2022-11-27T01:06:17;96.00;;;66.47;;
8881;SDS011;4477;48.736;9.176;2022-11-27T01:08:44;189.50;;;109.87;;
8881;SDS011;4477;48.736;9.176;2022-11-27T01:11:12;185.77;;;106.80;;
8881;SDS011;4477;48.736;9.176;2022-11-27T01:13:40;138.47;;;87.03;;
8881;SDS011;4477;48.736;9.176;2022-11-27T01:16:08;101.80;;;66.90;;
8881;SDS011;4477;48.736;9.176;2022-11-27T01:18:37;88.67;;;61.73;;
8881;SDS011;4477;48.736;9.176;2022-11-27T01:21:04;96.03;;;66.60;;
8881;SDS011;4477;48.736;9.176;2022-11-27T01:23:33;71.47;;;52.03;;
8881;SDS011;4477;48.736;9.176;2022-11-27T01:26:00;74.50;;;51.77;;
8881;SDS011;4477;48.736;9.176;2022-11-27T01:28:27;76.27;;;52.30;;
8881;SDS011;4477;48.736;9.176;2022-11-27T01:30:54;100.23;;;48.60;;
8881;SDS011;4477;48.736;9.176;2022-11-27T01:33:22;61.80;;;46.87;;
8881;SDS011;4477;48.736;9.176;2022-11-27T01:35:53;106.57;;;56.37;;
8881;SDS011;4477;48.736;9.176;2022-11-27T01:38:20;176.20;;;68.23;;
8881;SDS011;4477;48.736;9.176;2022-11-27T01:40:49;212.57;;;77.80;;
8881;SDS011;4477;48.736;9.176;2022-11-27T01:43:16;109.60;;;55.50;;
8881;SDS011;4477;48.736;9.176;2022-11-27T01:45:43;103.73;;;55.53;;
8881;SDS011;4477;48.736;9.176;2022-11-27T01:48:11;141.37;;;56.03;;
8881;SDS011;4477;48.736;9.176;2022-11-27T01:50:39;143.20;;;55.73;;
8881;SDS011;4477;48.736;9.176;2022-11-27T01:53:08;91.77;;;49.40;;
8881;SDS011;4477;48.736;9.176;2022-11-27T01:55:38;138.27;;;53.77;;
8881;SDS011;4477;48.736;9.176;2022-11-27T01:58:08;189.03;;;65.83;;
8881;SDS011;4477;48.736;9.176;2022-11-27T02:00:36;118.57;;;50.60;;
8881;SDS011;4477;48.736;9.176;2022-11-27T02:03:03;84.27;;;47.27;;
8881;SDS011;4477;48.736;9.176;2022-11-27T02:05:31;135.43;;;53.80;;
8881;SDS011;4477;48.736;9.176;2022-11-27T02:07:58;222.10;;;62.47;;
8881;SDS011;4477;48.736;9.176;2022-11-27T02:10:37;41.10;;;35.23;;
8881;SDS011;4477;48.736;9.176;2022-11-27T02:13:08;57.27;;;42.20;;
8881;SDS011;4477;48.736;9.176;2022-11-27T02:15:39;53.03;;;43.10;;
8881;SDS011;4477;48.736;9.176;2022-11-27T02:18:09;53.50;;;43.37;;
8881;SDS011;4477;48.736;9.176;2022-11-27T02:20:42;49.70;;;40.67;;
8881;SDS011;4477;48.736;9.176;2022-11-27T02:25:59;45.27;;;40.13;;
8881;SDS011;4477;48.736;9.176;2022-11-27T02:28:33;44.97;;;39.90;;
8881;SDS011;4477;48.736;9.176;2022-11-27T02:31:06;42.80;;;38.07;;
8881;SDS011;4477;48.736;9.176;2022-11-27T02:33:36;44.53;;;38.67;;
8881;SDS011;4477;48.736;9.176;2022-11-27T02:36:08;44.23;;;38.27;;
8881;SDS011;4477;48.736;9.176;2022-11-27T02:38:38;44.20;;;38.67;;
8881;SDS011;4477;48.736;9.176;2022-11-27T02:41:08;46.13;;;41.13;;
8881;SDS011;4477;48.736;9.176;2022-11-27T02:43:39;48.63;;;41.63;;
8881;SDS011;4477;48.736;9.176;2022-11-27T02:46:09;46.87;;;40.57;;
8881;SDS011;4477;48.736;9.176;2022-11-27T02:48:37;49.40;;;40.73;;
8881;SDS011;4477;48.736;9.176;2022-11-27T02:51:05;53.10;;;42.57;;
8881;SDS011;4477;48.736;9.176;2022-11-27T02:53:34;53.07;;;42.27;;
8881;SDS011;4477;48.736;9.176;2022-11-27T02:56:02;57.73;;;46.23;;
8881;SDS011;4477;48.736;9.176;2022-11-27T02:58:29;54.97;;;43.53;;
8881;SDS011;4477;48.736;9.176;2022-11-27T03:00:56;49.43;;;40.40;;
8881;SDS011;4477;48.736;9.176;2022-11-27T03:03:27;51.23;;;41.33;;
8881;SDS011;4477;48.736;9.176;2022-11-27T03:05:56;52.67;;;39.70;;
8881;SDS011;4477;48.736;9.176;2022-11-27T03:08:27;61.33;;;44.93;;
8881;SDS011;4477;48.736;9.176;2022-11-27T03:10:56;56.80;;;44.37;;
8881;SDS011;4477;48.736;9.176;2022-11-27T03:13:25;53.47;;;42.63;;
8881;SDS011;4477;48.736;9.176;2022-11-27T03:15:54;51.20;;;41.33;;
8881;SDS011;4477;48.736;9.176;2022-11-27T03:18:29;63.33;;;44.83;;
8881;SDS011;4477;48.736;9.176;2022-11-27T03:21:01;59.00;;;44.30;;
8881;SDS011;4477;48.736;9.176;2022-11-27T03:23:30;64.43;;;44.80;;
8881;SDS011;4477;48.736;9.176;2022-11-27T03:25:57;61.37;;;45.40;;
8881;SDS011;4477;48.736;9.176;2022-11-27T03:28:24;57.17;;;42.13;;
8881;SDS011;4477;48.736;9.176;2022-11-27T03:30:51;58.97;;;45.27;;
8881;SDS011;4477;48.736;9.176;2022-11-27T03:33:18;61.37;;;43.83;;
8881;SDS011;4477;48.736;9.176;2022-11-27T03:35:47;64.50;;;44.87;;
8881;SDS011;4477;48.736;9.176;2022-11-27T03:38:14;70.13;;;46.93;;
8881;SDS011;4477;48.736;9.176;2022-11-27T03:40:45;61.27;;;43.70;;
8881;SDS011;4477;48.736;9.176;2022-11-27T03:43:16;70.07;;;46.97;;
8881;SDS011;4477;48.736;9.176;2022-11-27T03:45:47;67.00;;;48.17;;
8881;SDS011;4477;48.736;9.176;2022-11-27T03:48:17;69.00;;;48.83;;
8881;SDS011;4477;48.736;9.176;2022-11-27T03:50:50;71.83;;;51.83;;
8881;SDS011;4477;48.736;9.176;2022-11-27T03:53:21;67.00;;;49.03;;
8881;SDS011;4477;48.736;9.176;2022-11-27T03:55:52;60.77;;;45.60;;
8881;SDS011;4477;48.736;9.176;2022-11-27T03:58:22;49.97;;;41.60;;
8881;SDS011;4477;48.736;9.176;2022-11-27T04:00:52;53.97;;;39.27;;
8881;SDS011;4477;48.736;9.176;2022-11-27T04:03:22;47.43;;;36.07;;
8881;SDS011;4477;48.736;9.176;2022-11-27T04:05:51;48.33;;;35.77;;
8881;SDS011;4477;48.736;9.176;2022-11-27T04:08:18;48.67;;;33.97;;
8881;SDS011;4477;48.736;9.176;2022-11-27T04:10:45;40.73;;;32.07;;
8881;SDS011;4477;48.736;9.176;2022-11-27T04:13:13;40.93;;;33.47;;
8881;SDS011;4477;48.736;9.176;2022-11-27T04:15:40;41.40;;;31.37;;
8881;SDS011;4477;48.736;9.176;2022-11-27T04:18:07;37.70;;;29.10;;
8881;SDS011;4477;48.736;9.176;2022-11-27T04:20:34;39.43;;;28.77;;
8881;SDS011;4477;48.736;9.176;2022-11-27T04:23:02;40.03;;;28.80;;
8881;SDS011;4477;48.736;9.176;2022-11-27T04:25:29;31.63;;;25.90;;
8881;SDS011;4477;48.736;9.176;2022-11-27T04:27:56;34.43;;;27.87;;
8881;SDS011;4477;48.736;9.176;2022-11-27T04:30:23;38.60;;;27.87;;
8881;SDS011;4477;48.736;9.176;2022-11-27T04:32:50;38.73;;;29.43;;
8881;SDS011;4477;48.736;9.176;2022-11-27T04:35:17;39.03;;;29.37;;
8881;SDS011;4477;48.736;9.176;2022-11-27T04:37:43;41.10;;;32.23;;
8881;SDS011;4477;48.736;9.176;2022-11-27T04:40:12;37.17;;;30.10;;
8881;SDS011;4477;48.736;9.176;2022-11-27T04:42:39;36.90;;;29.27;;
8881;SDS011;4477;48.736;9.176;2022-11-27T04:45:06;39.27;;;29.97;;
8881;SDS011;4477;48.736;9.176;2022-11-27T04:47:33;36.57;;;29.00;;
8881;SDS011;4477;48.736;9.176;2022-11-27T04:50:01;33.57;;;25.67;;
8881;SDS011;4477;48.736;9.176;2022-11-27T04:52:27;32.40;;;25.23;;
8881;SDS011;4477;48.736;9.176;2022-11-27T04:54:54;35.30;;;25.93;;
8881;SDS011;4477;48.736;9.176;2022-11-27T04:57:22;32.20;;;25.67;;
8881;SDS011;4477;48.736;9.176;2022-11-27T04:59:49;35.93;;;25.57;;
8881;SDS011;4477;48.736;9.176;2022-11-27T05:02:16;29.77;;;24.43;;
8881;SDS011;4477;48.736;9.176;2022-11-27T05:04:43;30.77;;;24.60;;
8881;SDS011;4477;48.736;9.176;2022-11-27T05:07:10;27.87;;;22.63;;
8881;SDS011;4477;48.736;9.176;2022-11-27T05:09:37;30.03;;;22.60;;
8881;SDS011;4477;48.736;9.176;2022-11-27T05:12:04;34.57;;;24.73;;
8881;SDS011;4477;48.736;9.176;2022-11-27T05:14:32;32.30;;;24.20;;
8881;SDS011;4477;48.736;9.176;2022-11-27T05:16:59;32.57;;;24.43;;
8881;SDS011;4477;48.736;9.176;2022-11-27T05:19:27;28.43;;;23.80;;
8881;SDS011;4477;48.736;9.176;2022-11-27T05:21:55;37.80;;;26.37;;
8881;SDS011;4477;48.736;9.176;2022-11-27T05:24:23;30.07;;;23.13;;
8881;SDS011;4477;48.736;9.176;2022-11-27T05:26:52;35.93;;;25.33;;
8881;SDS011;4477;48.736;9.176;2022-11-27T05:29:19;27.20;;;22.10;;
8881;SDS011;4477;48.736;9.176;2022-11-27T05:31:48;29.83;;;22.23;;
8881;SDS011;4477;48.736;9.176;2022-11-27T05:34:15;31.10;;;23.17;;
8881;SDS011;4477;48.736;9.176;2022-11-27T05:36:42;26.40;;;22.37;;
8881;SDS011;4477;48.736;9.176;2022-11-27T05:39:10;27.67;;;20.43;;
8881;SDS011;4477;48.736;9.176;2022-11-27T05:41:37;28.17;;;21.90;;
8881;SDS011;4477;48.736;9.176;2022-11-27T05:44:08;25.73;;;20.77;;
8881;SDS011;4477;48.736;9.176;2022-11-27T05:46:36;25.83;;;21.63;;
8881;SDS011;4477;48.736;9.176;2022-11-27T05:49:04;23.80;;;20.07;;
8881;SDS011;4477;48.736;9.176;2022-11-27T05:51:31;25.17;;;20.67;;
8881;SDS011;4477;48.736;9.176;2022-11-27T05:53:58;23.93;;;19.33;;
8881;SDS011;4477;48.736;9.176;2022-11-27T05:56:24;31.37;;;21.77;;
8881;SDS011;4477;48.736;9.176;2022-11-27T05:58:51;23.30;;;19.87;;
8881;SDS011;4477;48.736;9.176;2022-11-27T06:01:18;26.13;;;21.97;;
8881;SDS011;4477;48.736;9.176;2022-11-27T06:03:45;25.70;;;21.17;;
8881;SDS011;4477;48.736;9.176;2022-11-27T06:06:14;25.80;;;20.97;;
8881;SDS011;4477;48.736;9.176;2022-11-27T06:08:43;24.07;;;21.23;;
8881;SDS011;4477;48.736;9.176;2022-11-27T06:11:12;25.67;;;19.90;;
8881;SDS011;4477;48.736;9.176;2022-11-27T06:13:42;29.97;;;22.43;;
8881;SDS011;4477;48.736;9.176;2022-11-27T06:16:10;30.80;;;22.80;;
8881;SDS011;4477;48.736;9.176;2022-11-27T06:18:38;25.70;;;21.33;;
8881;SDS011;4477;48.736;9.176;2022-11-27T06:21:05;26.40;;;21.63;;
8881;SDS011;4477;48.736;9.176;2022-11-27T06:23:34;24.87;;;21.13;;
8881;SDS011;4477;48.736;9.176;2022-11-27T06:26:09;25.53;;;21.17;;
8881;SDS011;4477;48.736;9.176;2022-11-27T06:28:36;24.47;;;19.77;;
8881;SDS011;4477;48.736;9.176;2022-11-27T06:31:04;22.60;;;20.07;;
8881;SDS011;4477;48.736;9.176;2022-11-27T06:33:32;23.40;;;19.93;;
8881;SDS011;4477;48.736;9.176;2022-11-27T06:35:59;25.17;;;20.90;;
8881;SDS011;4477;48.736;9.176;2022-11-27T06:38:26;21.77;;;18.50;;
8881;SDS011;4477;48.736;9.176;2022-11-27T06:40:54;26.20;;;19.77;;
8881;SDS011;4477;48.736;9.176;2022-11-27T06:43:26;35.20;;;27.97;;
8881;SDS011;4477;48.736;9.176;2022-11-27T06:45:53;35.20;;;26.87;;
8881;SDS011;4477;48.736;9.176;2022-11-27T06:48:21;37.50;;;32.20;;
8881;SDS011;4477;48.736;9.176;2022-11-27T06:50:48;35.67;;;26.70;;
8881;SDS011;4477;48.736;9.176;2022-11-27T06:53:15;28.00;;;23.83;;
8881;SDS011;4477;48.736;9.176;2022-11-27T06:55:42;28.10;;;23.33;;
8881;SDS011;4477;48.736;9.176;2022-11-27T06:58:10;29.87;;;23.93;;
8881;SDS011;4477;48.736;9.176;2022-11-27T07:00:37;26.43;;;22.77;;
8881;SDS011;4477;48.736;9.176;2022-11-27T07:03:04;25.20;;;21.10;;
8881;SDS011;4477;48.736;9.176;2022-11-27T07:05:31;23.40;;;20.83;;
8881;SDS011;4477;48.736;9.176;2022-11-27T07:07:58;26.63;;;21.57;;
8881;SDS011;4477;48.736;9.176;2022-11-27T07:10:24;24.27;;;21.53;;
8881;SDS011;4477;48.736;9.176;2022-11-27T07:12:51;24.47;;;20.37;;
8881;SDS011;4477;48.736;9.176;2022-11-27T07:15:19;29.03;;;22.70;;
8881;SDS011;4477;48.736;9.176;2022-11-27T07:17:46;24.53;;;21.83;;
8881;SDS011;4477;48.736;9.176;2022-11-27T07:20:13;27.43;;;23.33;;
8881;SDS011;4477;48.736;9.176;2022-11-27T07:22:40;31.67;;;23.97;;
8881;SDS011;4477;48.736;9.176;2022-11-27T07:25:07;50.73;;;45.40;;
8881;SDS011;4477;48.736;9.176;2022-11-27T07:27:35;41.17;;;32.23;;
8881;SDS011;4477;48.736;9.176;2022-11-27T07:30:02;38.37;;;29.63;;
8881;SDS011;4477;48.736;9.176;2022-11-27T07:32:31;38.63;;;29.27;;
8881;SDS011;4477;48.736;9.176;2022-11-27T07:34:58;42.97;;;32.10;;
8881;SDS011;4477;48.736;9.176;2022-11-27T07:37:25;46.87;;;32.57;;
8881;SDS011;4477;48.736;9.176;2022-11-27T07:39:52;42.10;;;31.17;;
8881;SDS011;4477;48.736;9.176;2022-11-27T07:42:19;46.70;;;34.47;;
8881;SDS011;4477;48.736;9.176;2022-11-27T07:44:46;51.67;;;39.33;;
8881;SDS011;4477;48.736;9.176;2022-11-27T07:47:13;53.17;;;39.33;;
8881;SDS011;4477;48.736;9.176;2022-11-27T07:49:42;50.03;;;38.97;;
8881;SDS011;4477;48.736;9.176;2022-11-27T07:52:09;46.57;;;37.37;;
8881;SDS011;4477;48.736;9.176;2022-11-27T07:54:36;50.27;;;39.00;;
8881;SDS011;4477;48.736;9.176;2022-11-27T07:57:03;52.83;;;40.73;;
8881;SDS011;4477;48.736;9.176;2022-11-27T07:59:30;44.40;;;37.17;;
8881;SDS011;4477;48.736;9.176;2022-11-27T08:01:57;47.40;;;37.47;;
8881;SDS011;4477;48.736;9.176;2022-11-27T08:04:25;46.93;;;35.83;;
8881;SDS011;4477;48.736;9.176;2022-11-27T08:06:54;43.70;;;34.57;;
8881;SDS011;4477;48.736;9.176;2022-11-27T08:09:22;46.40;;;32.50;;
8881;SDS011;4477;48.736;9.176;2022-11-27T08:11:49;43.10;;;33.77;;
8881;SDS011;4477;48.736;9.176;2022-11-27T08:14:17;32.13;;;26.50;;
8881;SDS011;4477;48.736;9.176;2022-11-27T08:16:44;32.80;;;27.87;;
8881;SDS011;4477;48.736;9.176;2022-11-27T08:19:11;28.90;;;24.77;;
8881;SDS011;4477;48.736;9.176;2022-11-27T08:21:38;39.73;;;33.33;;
8881;SDS011;4477;48.736;9.176;2022-11-27T08:24:07;27.80;;;24.80;;
8881;SDS011;4477;48.736;9.176;2022-11-27T08:26:34;28.40;;;24.70;;
8881;SDS011;4477;48.736;9.176;2022-11-27T08:29:01;28.33;;;23.77;;
8881;SDS011;4477;48.736;9.176;2022-11-27T08:31:30;27.23;;;22.10;;
8881;SDS011;4477;48.736;9.176;2022-11-27T08:33:57;26.70;;;23.87;;
8881;SDS011;4477;48.736;9.176;2022-11-27T08:36:25;22.27;;;19.93;;
8881;SDS011;4477;48.736;9.176;2022-11-27T08:38:52;22.13;;;19.87;;
8881;SDS011;4477;48.736;9.176;2022-11-27T08:41:21;21.90;;;19.70;;
8881;SDS011;4477;48.736;9.176;2022-11-27T08:43:48;19.93;;;17.87;;
8881;SDS011;4477;48.736;9.176;2022-11-27T08:46:14;17.87;;;15.97;;
8881;SDS011;4477;48.736;9.176;2022-11-27T08:48:41;17.37;;;15.57;;
8881;SDS011;4477;48.736;9.176;2022-11-27T08:51:09;16.63;;;15.13;;
8881;SDS011;4477;48.736;9.176;2022-11-27T08:53:36;18.17;;;14.97;;
8881;SDS011;4477;48.736;9.176;2022-11-27T08:56:04;12.90;;;11.60;;
8881;SDS011;4477;48.736;9.176;2022-11-27T08:58:33;12.67;;;11.47;;
8881;SDS011;4477;48.736;9.176;2022-11-27T09:01:05;14.00;;;10.33;;
8881;SDS011;4477;48.736;9.176;2022-11-27T09:03:32;11.73;;;9.37;;
8881;SDS011;4477;48.736;9.176;2022-11-27T09:06:00;11.07;;;8.93;;
8881;SDS011;4477;48.736;9.176;2022-11-27T09:08:27;10.30;;;9.30;;
8881;SDS011;4477;48.736;9.176;2022-11-27T09:10:57;9.40;;;8.17;;
8881;SDS011;4477;48.736;9.176;2022-11-27T09:13:26;8.43;;;7.63;;
8881;SDS011;4477;48.736;9.176;2022-11-27T09:15:55;8.77;;;7.47;;
8881;SDS011;4477;48.736;9.176;2022-11-27T09:18:22;8.03;;;7.23;;
8881;SDS011;4477;48.736;9.176;2022-11-27T09:20:56;7.77;;;7.07;;
8881;SDS011;4477;48.736;9.176;2022-11-27T09:23:23;7.50;;;6.80;;
8881;SDS011;4477;48.736;9.176;2022-11-27T09:25:51;6.97;;;6.17;;
8881;SDS011;4477;48.736;9.176;2022-11-27T09:28:19;7.80;;;6.40;;
8881;SDS011;4477;48.736;9.176;2022-11-27T09:30:47;7.63;;;6.27;;
8881;SDS011;4477;48.736;9.176;2022-11-27T09:33:15;12.00;;;8.93;;
8881;SDS011;4477;48.736;9.176;2022-11-27T09:35:42;9.30;;;8.40;;
8881;SDS011;4477;48.736;9.176;2022-11-27T09:38:09;13.23;;;8.40;;
8881;SDS011;4477;48.736;9.176;2022-11-27T09:40:36;10.87;;;9.70;;
8881;SDS011;4477;48.736;9.176;2022-11-27T09:43:09;8.77;;;7.97;;
8881;SDS011;4477;48.736;9.176;2022-11-27T09:45:38;8.30;;;7.50;;
8881;SDS011;4477;48.736;9.176;2022-11-27T09:48:07;8.97;;;7.60;;
8881;SDS011;4477;48.736;9.176;2022-11-27T09:50:39;7.93;;;6.87;;
8881;SDS011;4477;48.736;9.176;2022-11-27T09:53:16;14.03;;;11.80;;
8881;SDS011;4477;48.736;9.176;2022-11-27T09:55:45;17.17;;;13.63;;
8881;SDS011;4477;48.736;9.176;2022-11-27T09:58:14;10.10;;;9.10;;
8881;SDS011;4477;48.736;9.176;2022-11-27T10:00:42;10.23;;;9.17;;
8881;SDS011;4477;48.736;9.176;2022-11-27T10:03:10;9.50;;;7.93;;
8881;SDS011;4477;48.736;9.176;2022-11-27T10:05:41;8.47;;;7.67;;
8881;SDS011;4477;48.736;9.176;2022-11-27T10:08:16;7.03;;;6.43;;
8881;SDS011;4477;48.736;9.176;2022-11-27T10:10:50;8.63;;;7.83;;
8881;SDS011;4477;48.736;9.176;2022-11-27T10:13:27;8.53;;;6.50;;
8881;SDS011;4477;48.736;9.176;2022-11-27T10:15:58;8.70;;;7.40;;
8881;SDS011;4477;48.736;9.176;2022-11-27T10:18:28;8.50;;;7.57;;
8881;SDS011;4477;48.736;9.176;2022-11-27T10:21:02;10.60;;;8.87;;
8881;SDS011;4477;48.736;9.176;2022-11-27T10:23:34;7.90;;;6.50;;
8881;SDS011;4477;48.736;9.176;2022-11-27T10:26:03;7.33;;;6.20;;
8881;SDS011;4477;48.736;9.176;2022-11-27T10:28:33;7.03;;;6.33;;
8881;SDS011;4477;48.736;9.176;2022-11-27T10:31:03;9.47;;;8.57;;
8881;SDS011;4477;48.736;9.176;2022-11-27T10:33:34;13.30;;;10.67;;
8881;SDS011;4477;48.736;9.176;2022-11-27T10:36:04;10.63;;;8.47;;
8881;SDS011;4477;48.736;9.176;2022-11-27T10:38:35;8.40;;;7.60;;
8881;SDS011;4477;48.736;9.176;2022-11-27T10:41:06;7.53;;;6.70;;
8881;SDS011;4477;48.736;9.176;2022-11-27T10:43:34;9.00;;;8.10;;
8881;SDS011;4477;48.736;9.176;2022-11-27T10:46:03;9.37;;;7.83;;
8881;SDS011;4477;48.736;9.176;2022-11-27T10:48:31;9.50;;;8.47;;
8881;SDS011;4477;48.736;9.176;2022-11-27T10:50:59;8.83;;;7.90;;
8881;SDS011;4477;48.736;9.176;2022-11-27T10:53:28;10.07;;;8.63;;
8881;SDS011;4477;48.736;9.176;2022-11-27T10:58:40;6.90;;;6.20;;
8881;SDS011;4477;48.736;9.176;2022-11-27T11:01:09;9.80;;;8.03;;
8881;SDS011;4477;48.736;9.176;2022-11-27T11:03:37;8.27;;;7.40;;
8881;SDS011;4477;48.736;9.176;2022-11-27T11:06:06;6.40;;;5.73;;
8881;SDS011;4477;48.736;9.176;2022-11-27T11:08:35;5.77;;;4.60;;
8881;SDS011;4477;48.736;9.176;2022-11-27T11:11:03;8.20;;;7.47;;
8881;SDS011;4477;48.736;9.176;2022-11-27T11:13:31;8.27;;;7.23;;
8881;SDS011;4477;48.736;9.176;2022-11-27T11:15:59;10.60;;;8.67;;
8881;SDS011;4477;48.736;9.176;2022-11-27T11:18:29;8.53;;;7.77;;
8881;SDS011;4477;48.736;9.176;2022-11-27T11:21:00;10.93;;;9.73;;
8881;SDS011;4477;48.736;9.176;2022-11-27T11:23:30;5.80;;;5.20;;
8881;SDS011;4477;48.736;9.176;2022-11-27T11:26:02;7.03;;;5.83;;
8881;SDS011;4477;48.736;9.176;2022-11-27T11:28:30;8.00;;;7.20;;
8881;SDS011;4477;48.736;9.176;2022-11-27T11:30:58;6.37;;;5.80;;
8881;SDS011;4477;48.736;9.176;2022-11-27T11:33:28;6.50;;;5.60;;
8881;SDS011;4477;48.736;9.176;2022-11-27T11:35:58;6.10;;;5.60;;
8881;SDS011;4477;48.736;9.176;2022-11-27T11:38:33;5.67;;;5.17;;
8881;SDS011;4477;48.736;9.176;2022-11-27T11:41:02;6.33;;;5.73;;
8881;SDS011;4477;48.736;9.176;2022-11-27T11:43:32;6.10;;;5.50;;
8881;SDS011;4477;48.736;9.176;2022-11-27T11:46:17;6.10;;;5.50;;
8881;SDS011;4477;48.736;9.176;2022-11-27T11:48:57;6.57;;;5.97;;
8881;SDS011;4477;48.736;9.176;2022-11-27T11:51:28;8.03;;;7.23;;
8881;SDS011;4477;48.736;9.176;2022-11-27T11:54:17;5.90;;;5.40;;
8881;SDS011;4477;48.736;9.176;2022-11-27T11:56:56;7.03;;;6.33;;
8881;SDS011;4477;48.736;9.176;2022-11-27T11:59:25;12.00;;;8.90;;
8881;SDS011;4477;48.736;9.176;2022-11-27T12:02:01;8.57;;;6.93;;
8881;SDS011;4477;48.736;9.176;2022-11-27T12:04:39;7.87;;;6.87;;
8881;SDS011;4477;48.736;9.176;2022-11-27T12:07:18;5.13;;;4.60;;
8881;SDS011;4477;48.736;9.176;2022-11-27T12:09:56;7.33;;;6.03;;
8881;SDS011;4477;48.736;9.176;2022-11-27T12:12:35;16.27;;;14.17;;
8881;SDS011;4477;48.736;9.176;2022-11-27T12:15:16;12.07;;;10.23;;
8881;SDS011;4477;48.736;9.176;2022-11-27T12:17:54;13.27;;;11.87;;
8881;SDS011;4477;48.736;9.176;2022-11-27T12:20:26;15.97;;;14.20;;
8881;SDS011;4477;48.736;9.176;2022-11-27T12:25:46;5.03;;;4.53;;
8881;SDS011;4477;48.736;9.176;2022-11-27T12:28:26;3.83;;;2.80;;
8881;SDS011;4477;48.736;9.176;2022-11-27T12:30:58;4.50;;;3.97;;
8881;SDS011;4477;48.736;9.176;2022-11-27T12:33:38;11.53;;;8.83;;
8881;SDS011;4477;48.736;9.176;2022-11-27T12:36:18;4.60;;;3.77;;
8881;SDS011;4477;48.736;9.176;2022-11-27T12:38:59;3.83;;;3.30;;
8881;SDS011;4477;48.736;9.176;2022-11-27T12:41:47;4.53;;;3.10;;
8881;SDS011;4477;48.736;9.176;2022-11-27T12:44:25;6.10;;;3.83;;
8881;SDS011;4477;48.736;9.176;2022-11-27T12:46:59;4.43;;;3.43;;
8881;SDS011;4477;48.736;9.176;2022-11-27T12:49:31;6.23;;;5.17;;
8881;SDS011;4477;48.736;9.176;2022-11-27T12:52:05;3.63;;;3.03;;
8881;SDS011;4477;48.736;9.176;2022-11-27T12:54:36;5.00;;;4.20;;
8881;SDS011;4477;48.736;9.176;2022-11-27T12:57:05;4.07;;;3.50;;
8881;SDS011;4477;48.736;9.176;2022-11-27T12:59:36;3.80;;;3.43;;
8881;SDS011;4477;48.736;9.176;2022-11-27T13:02:11;7.97;;;5.63;;
8881;SDS011;4477;48.736;9.176;2022-11-27T13:04:43;6.40;;;5.63;;
8881;SDS011;4477;48.736;9.176;2022-11-27T13:07:13;4.77;;;4.23;;
8881;SDS011;4477;48.736;9.176;2022-11-27T13:09:44;5.80;;;5.20;;
8881;SDS011;4477;48.736;9.176;2022-11-27T13:12:16;4.60;;;3.93;;
8881;SDS011;4477;48.736;9.176;2022-11-27T13:14:49;7.57;;;6.40;;
8881;SDS011;4477;48.736;9.176;2022-11-27T13:17:20;9.67;;;7.80;;
8881;SDS011;4477;48.736;9.176;2022-11-27T13:19:48;13.57;;;12.17;;
8881;SDS011;4477;48.736;9.176;2022-11-27T13:22:16;11.80;;;10.10;;
8881;SDS011;4477;48.736;9.176;2022-11-27T13:24:51;12.33;;;10.13;;
8881;SDS011;4477;48.736;9.176;2022-11-27T13:27:19;8.40;;;7.00;;
8881;SDS011;4477;48.736;9.176;2022-11-27T13:29:49;6.33;;;5.17;;
8881;SDS011;4477;48.736;9.176;2022-11-27T13:32:19;5.50;;;5.00;;
8881;SDS011;4477;48.736;9.176;2022-11-27T13:34:47;15.87;;;12.87;;
8881;SDS011;4477;48.736;9.176;2022-11-27T13:37:27;9.70;;;8.70;;
8881;SDS011;4477;48.736;9.176;2022-11-27T13:40:00;6.87;;;5.90;;
8881;SDS011;4477;48.736;9.176;2022-11-27T13:42:29;18.53;;;16.60;;
8881;SDS011;4477;48.736;9.176;2022-11-27T13:45:00;8.73;;;7.83;;
8881;SDS011;4477;48.736;9.176;2022-11-27T13:47:34;11.10;;;9.87;;
8881;SDS011;4477;48.736;9.176;2022-11-27T13:50:04;8.17;;;7.33;;
8881;SDS011;4477;48.736;9.176;2022-11-27T13:52:34;6.67;;;6.03;;
8881;SDS011;4477;48.736;9.176;2022-11-27T13:55:03;7.70;;;6.23;;
8881;SDS011;4477;48.736;9.176;2022-11-27T13:57:33;7.80;;;6.80;;
8881;SDS011;4477;48.736;9.176;2022-11-27T14:00:05;10.90;;;8.67;;
8881;SDS011;4477;48.736;9.176;2022-11-27T14:02:41;62.10;;;25.93;;
8881;SDS011;4477;48.736;9.176;2022-11-27T14:05:10;36.07;;;18.07;;
8881;SDS011;4477;48.736;9.176;2022-11-27T14:07:38;20.27;;;12.73;;
8881;SDS011;4477;48.736;9.176;2022-11-27T14:10:09;15.87;;;10.73;;
8881;SDS011;4477;48.736;9.176;2022-11-27T14:12:38;6.40;;;5.73;;
8881;SDS011;4477;48.736;9.176;2022-11-27T14:15:08;6.50;;;5.70;;
8881;SDS011;4477;48.736;9.176;2022-11-27T14:17:47;7.73;;;6.23;;
8881;SDS011;4477;48.736;9.176;2022-11-27T14:20:20;6.73;;;6.03;;
8881;SDS011;4477;48.736;9.176;2022-11-27T14:22:52;7.37;;;6.03;;
8881;SDS011;4477;48.736;9.176;2022-11-27T14:25:21;6.53;;;5.90;;
8881;SDS011;4477;48.736;9.176;2022-11-27T14:27:52;6.93;;;6.00;;
8881;SDS011;4477;48.736;9.176;2022-11-27T14:30:32;8.33;;;6.43;;
8881;SDS011;4477;48.736;9.176;2022-11-27T14:33:01;6.57;;;5.97;;
8881;SDS011;4477;48.736;9.176;2022-11-27T14:35:29;8.13;;;6.97;;
8881;SDS011;4477;48.736;9.176;2022-11-27T14:38:09;10.00;;;7.10;;
8881;SDS011;4477;48.736;9.176;2022-11-27T14:40:36;9.50;;;8.50;;
8881;SDS011;4477;48.736;9.176;2022-11-27T14:43:07;9.47;;;8.57;;
8881;SDS011;4477;48.736;9.176;2022-11-27T14:45:36;10.63;;;9.57;;
8881;SDS011;4477;48.736;9.176;2022-11-27T14:48:11;10.20;;;8.57;;
8881;SDS011;4477;48.736;9.176;2022-11-27T14:50:44;10.00;;;7.90;;
8881;SDS011;4477;48.736;9.176;2022-11-27T14:53:11;10.37;;;8.27;;
8881;SDS011;4477;48.736;9.176;2022-11-27T14:55:38;8.30;;;7.50;;
8881;SDS011;4477;48.736;9.176;2022-11-27T14:58:06;10.73;;;7.23;;
8881;SDS011;4477;48.736;9.176;2022-11-27T15:00:48;9.30;;;8.30;;
8881;SDS011;4477;48.736;9.176;2022-11-27T15:03:16;9.23;;;8.30;;
8881;SDS011;4477;48.736;9.176;2022-11-27T15:05:48;7.33;;;6.63;;
8881;SDS011;4477;48.736;9.176;2022-11-27T15:08:17;9.30;;;8.00;;
8881;SDS011;4477;48.736;9.176;2022-11-27T15:10:44;8.73;;;7.83;;
8881;SDS011;4477;48.736;9.176;2022-11-27T15:13:17;7.90;;;6.90;;
8881;SDS011;4477;48.736;9.176;2022-11-27T15:15:53;8.03;;;7.20;;
8881;SDS011;4477;48.736;9.176;2022-11-27T15:18:23;7.93;;;7.13;;